sensor_id;sensor_type;location;lat;lon;timestamp;P1;durP1;ratioP1;P2;durP2;ratioP2
9983;SDS011;16737;50.932;6.780;2023-03-01T00:01:28;0.50;;;0.50;;
9983;SDS011;16737;50.932;6.780;2023-03-01T00:03:57;0.40;;;0.40;;
9983;SDS011;16737;50.932;6.780;2023-03-01T00:06:27;0.50;;;0.50;;
9983;SDS011;16737;50.932;6.780;2023-03-01T00:08:54;0.40;;;0.40;;
9983;SDS011;16737;50.932;6.780;2023-03-01T00:11:22;0.40;;;0.40;;
9983;SDS011;16737;50.932;6.780;2023-03-01T00:13:52;0.40;;;0.40;;
9983;SDS011;16737;50.932;6.780;2023-03-01T00:16:23;0.40;;;0.40;;
9983;SDS011;16737;50.932;6.780;2023-03-01T00:18:53;0.40;;;0.40;;
9983;SDS011;16737;50.932;6.780;2023-03-01T00:21:21;0.50;;;0.50;;
9983;SDS011;16737;50.932;6.780;2023-03-01T00:23:50;0.50;;;0.50;;
9983;SDS011;16737;50.932;6.780;2023-03-01T00:26:18;0.40;;;0.40;;
9983;SDS011;16737;50.932;6.780;2023-03-01T00:28:48;0.45;;;0.45;;
9983;SDS011;16737;50.932;6.780;2023-03-01T00:31:18;0.40;;;0.40;;
9983;SDS011;16737;50.932;6.780;2023-03-01T00:33:48;0.40;;;0.40;;
9983;SDS011;16737;50.932;6.780;2023-03-01T00:36:18;0.40;;;0.40;;
9983;SDS011;16737;50.932;6.780;2023-03-01T00:38:45;0.40;;;0.40;;
9983;SDS011;16737;50.932;6.780;2023-03-01T00:41:14;0.40;;;0.40;;
9983;SDS011;16737;50.932;6.780;2023-03-01T00:43:44;0.40;;;0.40;;
9983;SDS011;16737;50.932;6.780;2023-03-01T00:46:12;0.40;;;0.40;;
9983;SDS011;16737;50.932;6.780;2023-03-01T00:48:41;0.40;;;0.40;;
9983;SDS011;16737;50.932;6.780;2023-03-01T00:51:09;0.50;;;0.50;;
9983;SDS011;16737;50.932;6.780;2023-03-01T00:53:38;0.50;;;0.50;;
9983;SDS011;16737;50.932;6.780;2023-03-01T00:56:06;0.50;;;0.50;;
9983;SDS011;16737;50.932;6.780;2023-03-01T00:58:37;0.45;;;0.45;;
9983;SDS011;16737;50.932;6.780;2023-03-01T01:01:07;0.50;;;0.50;;
9983;SDS011;16737;50.932;6.780;2023-03-01T01:03:42;0.60;;;0.60;;
9983;SDS011;16737;50.932;6.780;2023-03-01T01:06:14;0.40;;;0.40;;
9983;SDS011;16737;50.932;6.780;2023-03-01T01:08:42;0.50;;;0.50;;
9983;SDS011;16737;50.932;6.780;2023-03-01T01:11:11;0.40;;;0.40;;
9983;SDS011;16737;50.932;6.780;2023-03-01T01:13:40;0.50;;;0.50;;
9983;SDS011;16737;50.932;6.780;2023-03-01T01:16:10;0.47;;;0.47;;
9983;SDS011;16737;50.932;6.780;2023-03-01T01:18:39;0.50;;;0.50;;
9983;SDS011;16737;50.932;6.780;2023-03-01T01:21:06;0.40;;;0.40;;
9983;SDS011;16737;50.932;6.780;2023-03-01T01:23:35;0.40;;;0.40;;
9983;SDS011;16737;50.932;6.780;2023-03-01T01:26:04;0.52;;;0.52;;
9983;SDS011;16737;50.932;6.780;2023-03-01T01:28:33;0.40;;;0.40;;
9983;SDS011;16737;50.932;6.780;2023-03-01T01:31:01;0.40;;;0.40;;
9983;SDS011;16737;50.932;6.780;2023-03-01T01:33:29;0.45;;;0.45;;
9983;SDS011;16737;50.932;6.780;2023-03-01T01:35:56;0.40;;;0.40;;
9983;SDS011;16737;50.932;6.780;2023-03-01T01:38:23;0.40;;;0.40;;
9983;SDS011;16737;50.932;6.780;2023-03-01T01:40:50;0.50;;;0.50;;
9983;SDS011;16737;50.932;6.780;2023-03-01T01:43:19;0.40;;;0.40;;
9983;SDS011;16737;50.932;6.780;2023-03-01T01:45:49;0.50;;;0.50;;
9983;SDS011;16737;50.932;6.780;2023-03-01T01:48:18;0.50;;;0.50;;
9983;SDS011;16737;50.932;6.780;2023-03-01T01:50:51;0.45;;;0.45;;
9983;SDS011;16737;50.932;6.780;2023-03-01T01:53:25;0.40;;;0.40;;
9983;SDS011;16737;50.932;6.780;2023-03-01T01:55:55;0.40;;;0.40;;
9983;SDS011;16737;50.932;6.780;2023-03-01T01:58:27;0.40;;;0.40;;
9983;SDS011;16737;50.932;6.780;2023-03-01T02:00:56;0.40;;;0.40;;
9983;SDS011;16737;50.932;6.780;2023-03-01T02:03:27;1.00;;;1.00;;
9983;SDS011;16737;50.932;6.780;2023-03-01T02:06:03;0.68;;;0.68;;
9983;SDS011;16737;50.932;6.780;2023-03-01T02:08:35;0.70;;;0.70;;
9983;SDS011;16737;50.932;6.780;2023-03-01T02:11:06;0.70;;;0.70;;
9983;SDS011;16737;50.932;6.780;2023-03-01T02:13:34;0.73;;;0.73;;
9983;SDS011;16737;50.932;6.780;2023-03-01T02:16:03;0.70;;;0.70;;
9983;SDS011;16737;50.932;6.780;2023-03-01T02:18:35;0.80;;;0.80;;
9983;SDS011;16737;50.932;6.780;2023-03-01T02:21:08;0.50;;;0.50;;
9983;SDS011;16737;50.932;6.780;2023-03-01T02:23:54;0.70;;;0.70;;
9983;SDS011;16737;50.932;6.780;2023-03-01T02:26:27;0.80;;;0.80;;
9983;SDS011;16737;50.932;6.780;2023-03-01T02:29:08;0.68;;;0.68;;
9983;SDS011;16737;50.932;6.780;2023-03-01T02:31:35;0.80;;;0.80;;
9983;SDS011;16737;50.932;6.780;2023-03-01T02:34:07;0.73;;;0.73;;
9983;SDS011;16737;50.932;6.780;2023-03-01T02:36:39;0.70;;;0.70;;
9983;SDS011;16737;50.932;6.780;2023-03-01T02:39:12;0.98;;;0.98;;
9983;SDS011;16737;50.932;6.780;2023-03-01T02:41:46;0.60;;;0.60;;
9983;SDS011;16737;50.932;6.780;2023-03-01T02:44:19;0.80;;;0.80;;
9983;SDS011;16737;50.932;6.780;2023-03-01T02:46:48;0.63;;;0.63;;
9983;SDS011;16737;50.932;6.780;2023-03-01T02:49:22;0.80;;;0.80;;
9983;SDS011;16737;50.932;6.780;2023-03-01T02:52:08;0.60;;;0.60;;
9983;SDS011;16737;50.932;6.780;2023-03-01T02:54:58;0.57;;;0.57;;
9983;SDS011;16737;50.932;6.780;2023-03-01T02:57:28;0.73;;;0.73;;
9983;SDS011;16737;50.932;6.780;2023-03-01T03:00:02;0.70;;;0.70;;
9983;SDS011;16737;50.932;6.780;2023-03-01T03:02:33;0.70;;;0.70;;
9983;SDS011;16737;50.932;6.780;2023-03-01T03:05:05;0.55;;;0.55;;
9983;SDS011;16737;50.932;6.780;2023-03-01T03:07:35;0.60;;;0.60;;
9983;SDS011;16737;50.932;6.780;2023-03-01T03:10:06;0.60;;;0.60;;
9983;SDS011;16737;50.932;6.780;2023-03-01T03:12:37;0.75;;;0.75;;
9983;SDS011;16737;50.932;6.780;2023-03-01T03:15:07;0.73;;;0.73;;
9983;SDS011;16737;50.932;6.780;2023-03-01T03:17:37;0.70;;;0.70;;
9983;SDS011;16737;50.932;6.780;2023-03-01T03:20:09;0.77;;;0.77;;
9983;SDS011;16737;50.932;6.780;2023-03-01T03:22:43;0.80;;;0.80;;
9983;SDS011;16737;50.932;6.780;2023-03-01T03:25:12;0.70;;;0.70;;
9983;SDS011;16737;50.932;6.780;2023-03-01T03:27:40;0.70;;;0.70;;
9983;SDS011;16737;50.932;6.780;2023-03-01T03:30:12;0.68;;;0.68;;
9983;SDS011;16737;50.932;6.780;2023-03-01T03:32:43;0.80;;;0.80;;
9983;SDS011;16737;50.932;6.780;2023-03-01T03:35:17;0.80;;;0.80;;
9983;SDS011;16737;50.932;6.780;2023-03-01T03:37:46;0.80;;;0.80;;
9983;SDS011;16737;50.932;6.780;2023-03-01T03:40:29;0.88;;;0.88;;
9983;SDS011;16737;50.932;6.780;2023-03-01T03:42:58;0.70;;;0.70;;
9983;SDS011;16737;50.932;6.780;2023-03-01T03:45:26;0.80;;;0.80;;
9983;SDS011;16737;50.932;6.780;2023-03-01T03:47:53;0.57;;;0.57;;
9983;SDS011;16737;50.932;6.780;2023-03-01T03:50:20;0.73;;;0.73;;
9983;SDS011;16737;50.932;6.780;2023-03-01T03:52:47;0.70;;;0.70;;
9983;SDS011;16737;50.932;6.780;2023-03-01T03:55:14;0.75;;;0.75;;
9983;SDS011;16737;50.932;6.780;2023-03-01T03:57:44;0.90;;;0.90;;
9983;SDS011;16737;50.932;6.780;2023-03-01T04:00:17;0.70;;;0.70;;
9983;SDS011;16737;50.932;6.780;2023-03-01T04:02:50;0.70;;;0.70;;
9983;SDS011;16737;50.932;6.780;2023-03-01T04:05:21;0.88;;;0.88;;
9983;SDS011;16737;50.932;6.780;2023-03-01T04:07:48;0.90;;;0.90;;
9983;SDS011;16737;50.932;6.780;2023-03-01T04:10:25;1.00;;;1.00;;
9983;SDS011;16737;50.932;6.780;2023-03-01T04:12:54;0.63;;;0.63;;
9983;SDS011;16737;50.932;6.780;2023-03-01T04:15:22;1.05;;;1.05;;
9983;SDS011;16737;50.932;6.780;2023-03-01T04:17:52;0.85;;;0.85;;
9983;SDS011;16737;50.932;6.780;2023-03-01T04:20:21;0.82;;;0.82;;
9983;SDS011;16737;50.932;6.780;2023-03-01T04:22:50;0.70;;;0.70;;
9983;SDS011;16737;50.932;6.780;2023-03-01T04:25:23;0.98;;;0.98;;
9983;SDS011;16737;50.932;6.780;2023-03-01T04:27:51;0.80;;;0.80;;
9983;SDS011;16737;50.932;6.780;2023-03-01T04:30:17;0.73;;;0.73;;
9983;SDS011;16737;50.932;6.780;2023-03-01T04:32:45;0.70;;;0.70;;
9983;SDS011;16737;50.932;6.780;2023-03-01T04:35:13;0.60;;;0.60;;
9983;SDS011;16737;50.932;6.780;2023-03-01T04:37:40;0.68;;;0.68;;
9983;SDS011;16737;50.932;6.780;2023-03-01T04:40:07;0.80;;;0.80;;
9983;SDS011;16737;50.932;6.780;2023-03-01T04:42:41;0.77;;;0.77;;
9983;SDS011;16737;50.932;6.780;2023-03-01T04:45:08;0.60;;;0.60;;
9983;SDS011;16737;50.932;6.780;2023-03-01T04:47:38;0.90;;;0.90;;
9983;SDS011;16737;50.932;6.780;2023-03-01T04:50:08;0.80;;;0.80;;
9983;SDS011;16737;50.932;6.780;2023-03-01T04:52:38;0.80;;;0.80;;
9983;SDS011;16737;50.932;6.780;2023-03-01T04:55:05;0.70;;;0.70;;
9983;SDS011;16737;50.932;6.780;2023-03-01T04:57:33;0.80;;;0.80;;
9983;SDS011;16737;50.932;6.780;2023-03-01T05:00:00;0.70;;;0.70;;
9983;SDS011;16737;50.932;6.780;2023-03-01T05:02:44;0.70;;;0.70;;
9983;SDS011;16737;50.932;6.780;2023-03-01T05:05:18;0.73;;;0.73;;
9983;SDS011;16737;50.932;6.780;2023-03-01T05:07:51;0.80;;;0.80;;
9983;SDS011;16737;50.932;6.780;2023-03-01T05:10:20;0.80;;;0.80;;
9983;SDS011;16737;50.932;6.780;2023-03-01T05:12:47;0.70;;;0.70;;
9983;SDS011;16737;50.932;6.780;2023-03-01T05:15:14;0.77;;;0.77;;
9983;SDS011;16737;50.932;6.780;2023-03-01T05:17:42;0.80;;;0.80;;
9983;SDS011;16737;50.932;6.780;2023-03-01T05:20:09;0.63;;;0.63;;
9983;SDS011;16737;50.932;6.780;2023-03-01T05:22:37;0.80;;;0.80;;
9983;SDS011;16737;50.932;6.780;2023-03-01T05:25:06;0.77;;;0.77;;
9983;SDS011;16737;50.932;6.780;2023-03-01T05:27:33;0.80;;;0.80;;
9983;SDS011;16737;50.932;6.780;2023-03-01T05:30:01;0.90;;;0.90;;
9983;SDS011;16737;50.932;6.780;2023-03-01T05:32:38;0.85;;;0.85;;
9983;SDS011;16737;50.932;6.780;2023-03-01T05:35:08;0.80;;;0.80;;
9983;SDS011;16737;50.932;6.780;2023-03-01T05:37:38;0.80;;;0.80;;
9983;SDS011;16737;50.932;6.780;2023-03-01T05:40:12;0.70;;;0.70;;
9983;SDS011;16737;50.932;6.780;2023-03-01T05:42:42;0.80;;;0.80;;
9983;SDS011;16737;50.932;6.780;2023-03-01T05:45:10;0.80;;;0.80;;
9983;SDS011;16737;50.932;6.780;2023-03-01T05:47:39;0.80;;;0.80;;
9983;SDS011;16737;50.932;6.780;2023-03-01T05:50:10;0.60;;;0.60;;
9983;SDS011;16737;50.932;6.780;2023-03-01T05:52:44;0.85;;;0.85;;
9983;SDS011;16737;50.932;6.780;2023-03-01T05:55:14;0.60;;;0.60;;
9983;SDS011;16737;50.932;6.780;2023-03-01T05:57:43;0.90;;;0.90;;
9983;SDS011;16737;50.932;6.780;2023-03-01T06:00:11;0.70;;;0.70;;
9983;SDS011;16737;50.932;6.780;2023-03-01T06:02:40;0.80;;;0.80;;
9983;SDS011;16737;50.932;6.780;2023-03-01T06:05:08;0.70;;;0.70;;
9983;SDS011;16737;50.932;6.780;2023-03-01T06:07:36;0.80;;;0.80;;
9983;SDS011;16737;50.932;6.780;2023-03-01T06:10:04;0.82;;;0.82;;
9983;SDS011;16737;50.932;6.780;2023-03-01T06:12:35;0.70;;;0.70;;
9983;SDS011;16737;50.932;6.780;2023-03-01T06:15:05;0.70;;;0.70;;
9983;SDS011;16737;50.932;6.780;2023-03-01T06:17:35;0.83;;;0.83;;
9983;SDS011;16737;50.932;6.780;2023-03-01T06:20:06;0.65;;;0.65;;
9983;SDS011;16737;50.932;6.780;2023-03-01T06:22:36;0.80;;;0.80;;
9983;SDS011;16737;50.932;6.780;2023-03-01T06:25:04;0.80;;;0.80;;
9983;SDS011;16737;50.932;6.780;2023-03-01T06:27:32;0.70;;;0.70;;
9983;SDS011;16737;50.932;6.780;2023-03-01T06:30:01;0.70;;;0.70;;
9983;SDS011;16737;50.932;6.780;2023-03-01T06:32:28;0.82;;;0.82;;
9983;SDS011;16737;50.932;6.780;2023-03-01T06:34:56;0.60;;;0.60;;
9983;SDS011;16737;50.932;6.780;2023-03-01T06:37:24;0.70;;;0.70;;
9983;SDS011;16737;50.932;6.780;2023-03-01T06:39:51;0.75;;;0.75;;
9983;SDS011;16737;50.932;6.780;2023-03-01T06:42:18;0.70;;;0.70;;
9983;SDS011;16737;50.932;6.780;2023-03-01T06:44:45;0.90;;;0.90;;
9983;SDS011;16737;50.932;6.780;2023-03-01T06:47:13;0.70;;;0.70;;
9983;SDS011;16737;50.932;6.780;2023-03-01T06:49:40;0.88;;;0.88;;
9983;SDS011;16737;50.932;6.780;2023-03-01T06:52:07;0.73;;;0.73;;
9983;SDS011;16737;50.932;6.780;2023-03-01T06:54:34;0.70;;;0.70;;
9983;SDS011;16737;50.932;6.780;2023-03-01T06:57:01;0.80;;;0.80;;
9983;SDS011;16737;50.932;6.780;2023-03-01T06:59:28;0.70;;;0.70;;
9983;SDS011;16737;50.932;6.780;2023-03-01T07:01:55;0.80;;;0.80;;
9983;SDS011;16737;50.932;6.780;2023-03-01T07:04:23;0.77;;;0.77;;
9983;SDS011;16737;50.932;6.780;2023-03-01T07:06:53;0.82;;;0.82;;
9983;SDS011;16737;50.932;6.780;2023-03-01T07:09:20;0.80;;;0.80;;
9983;SDS011;16737;50.932;6.780;2023-03-01T07:11:48;1.00;;;1.00;;
9983;SDS011;16737;50.932;6.780;2023-03-01T07:14:15;0.90;;;0.90;;
9983;SDS011;16737;50.932;6.780;2023-03-01T07:16:42;0.90;;;0.90;;
9983;SDS011;16737;50.932;6.780;2023-03-01T07:19:09;0.70;;;0.70;;
9983;SDS011;16737;50.932;6.780;2023-03-01T07:21:37;0.60;;;0.60;;
9983;SDS011;16737;50.932;6.780;2023-03-01T07:24:05;0.60;;;0.60;;
9983;SDS011;16737;50.932;6.780;2023-03-01T07:26:34;0.68;;;0.68;;
9983;SDS011;16737;50.932;6.780;2023-03-01T07:29:02;0.70;;;0.70;;
9983;SDS011;16737;50.932;6.780;2023-03-01T07:31:31;0.60;;;0.60;;
9983;SDS011;16737;50.932;6.780;2023-03-01T07:33:58;0.70;;;0.70;;
9983;SDS011;16737;50.932;6.780;2023-03-01T07:36:25;0.70;;;0.70;;
9983;SDS011;16737;50.932;6.780;2023-03-01T07:38:54;0.63;;;0.63;;
9983;SDS011;16737;50.932;6.780;2023-03-01T07:41:21;0.80;;;0.80;;
9983;SDS011;16737;50.932;6.780;2023-03-01T07:43:48;1.02;;;1.02;;
9983;SDS011;16737;50.932;6.780;2023-03-01T07:46:15;0.80;;;0.80;;
9983;SDS011;16737;50.932;6.780;2023-03-01T07:48:43;0.80;;;0.80;;
9983;SDS011;16737;50.932;6.780;2023-03-01T07:51:10;0.77;;;0.77;;
9983;SDS011;16737;50.932;6.780;2023-03-01T07:53:37;0.60;;;0.60;;
9983;SDS011;16737;50.932;6.780;2023-03-01T07:56:06;0.60;;;0.60;;
9983;SDS011;16737;50.932;6.780;2023-03-01T07:58:36;0.50;;;0.50;;
9983;SDS011;16737;50.932;6.780;2023-03-01T08:01:09;0.85;;;0.85;;
9983;SDS011;16737;50.932;6.780;2023-03-01T08:03:39;0.70;;;0.70;;
9983;SDS011;16737;50.932;6.780;2023-03-01T08:06:07;0.60;;;0.60;;
9983;SDS011;16737;50.932;6.780;2023-03-01T08:08:35;0.60;;;0.60;;
9983;SDS011;16737;50.932;6.780;2023-03-01T08:11:03;0.70;;;0.70;;
9983;SDS011;16737;50.932;6.780;2023-03-01T08:13:33;0.77;;;0.77;;
9983;SDS011;16737;50.932;6.780;2023-03-01T08:16:01;0.70;;;0.70;;
9983;SDS011;16737;50.932;6.780;2023-03-01T08:18:28;0.65;;;0.65;;
9983;SDS011;16737;50.932;6.780;2023-03-01T08:20:55;0.77;;;0.77;;
9983;SDS011;16737;50.932;6.780;2023-03-01T08:23:27;0.80;;;0.80;;
9983;SDS011;16737;50.932;6.780;2023-03-01T08:25:54;0.75;;;0.75;;
9983;SDS011;16737;50.932;6.780;2023-03-01T08:28:30;0.98;;;0.98;;
9983;SDS011;16737;50.932;6.780;2023-03-01T08:30:57;0.80;;;0.80;;
9983;SDS011;16737;50.932;6.780;2023-03-01T08:33:24;0.98;;;0.98;;
9983;SDS011;16737;50.932;6.780;2023-03-01T08:35:51;0.75;;;0.75;;
9983;SDS011;16737;50.932;6.780;2023-03-01T08:38:18;0.85;;;0.85;;
9983;SDS011;16737;50.932;6.780;2023-03-01T08:40:45;0.75;;;0.75;;
9983;SDS011;16737;50.932;6.780;2023-03-01T08:43:12;0.98;;;0.98;;
9983;SDS011;16737;50.932;6.780;2023-03-01T08:45:40;0.68;;;0.68;;
9983;SDS011;16737;50.932;6.780;2023-03-01T08:48:07;0.95;;;0.95;;
9983;SDS011;16737;50.932;6.780;2023-03-01T08:50:34;0.50;;;0.50;;
9983;SDS011;16737;50.932;6.780;2023-03-01T08:53:01;0.70;;;0.70;;
9983;SDS011;16737;50.932;6.780;2023-03-01T08:55:28;0.50;;;0.50;;
9983;SDS011;16737;50.932;6.780;2023-03-01T08:57:55;0.70;;;0.70;;
9983;SDS011;16737;50.932;6.780;2023-03-01T09:00:24;0.77;;;0.77;;
9983;SDS011;16737;50.932;6.780;2023-03-01T09:02:52;0.68;;;0.68;;
9983;SDS011;16737;50.932;6.780;2023-03-01T09:05:19;0.70;;;0.70;;
9983;SDS011;16737;50.932;6.780;2023-03-01T09:07:46;0.50;;;0.50;;
9983;SDS011;16737;50.932;6.780;2023-03-01T09:10:13;0.70;;;0.70;;
9983;SDS011;16737;50.932;6.780;2023-03-01T09:12:40;0.60;;;0.60;;
9983;SDS011;16737;50.932;6.780;2023-03-01T09:15:07;0.60;;;0.60;;
9983;SDS011;16737;50.932;6.780;2023-03-01T09:17:35;0.50;;;0.50;;
9983;SDS011;16737;50.932;6.780;2023-03-01T09:20:04;0.60;;;0.60;;
9983;SDS011;16737;50.932;6.780;2023-03-01T09:22:32;0.50;;;0.50;;
9983;SDS011;16737;50.932;6.780;2023-03-01T09:25:00;0.70;;;0.70;;
9983;SDS011;16737;50.932;6.780;2023-03-01T09:27:27;0.40;;;0.40;;
9983;SDS011;16737;50.932;6.780;2023-03-01T09:29:54;0.60;;;0.60;;
9983;SDS011;16737;50.932;6.780;2023-03-01T09:32:21;0.57;;;0.57;;
9983;SDS011;16737;50.932;6.780;2023-03-01T09:34:48;0.63;;;0.63;;
9983;SDS011;16737;50.932;6.780;2023-03-01T09:37:30;0.55;;;0.55;;
9983;SDS011;16737;50.932;6.780;2023-03-01T09:39:58;0.60;;;0.60;;
9983;SDS011;16737;50.932;6.780;2023-03-01T09:42:26;0.50;;;0.50;;
9983;SDS011;16737;50.932;6.780;2023-03-01T09:44:57;0.63;;;0.63;;
9983;SDS011;16737;50.932;6.780;2023-03-01T09:47:30;0.50;;;0.50;;
9983;SDS011;16737;50.932;6.780;2023-03-01T09:50:02;0.60;;;0.60;;
9983;SDS011;16737;50.932;6.780;2023-03-01T09:52:38;0.50;;;0.50;;
9983;SDS011;16737;50.932;6.780;2023-03-01T09:55:11;0.60;;;0.60;;
9983;SDS011;16737;50.932;6.780;2023-03-01T09:57:43;0.60;;;0.60;;
9983;SDS011;16737;50.932;6.780;2023-03-01T10:00:21;0.50;;;0.50;;
9983;SDS011;16737;50.932;6.780;2023-03-01T10:03:01;0.50;;;0.50;;
9983;SDS011;16737;50.932;6.780;2023-03-01T10:05:41;0.60;;;0.60;;
9983;SDS011;16737;50.932;6.780;2023-03-01T10:08:26;0.60;;;0.60;;
9983;SDS011;16737;50.932;6.780;2023-03-01T10:11:01;0.60;;;0.60;;
9983;SDS011;16737;50.932;6.780;2023-03-01T10:13:33;0.50;;;0.50;;
9983;SDS011;16737;50.932;6.780;2023-03-01T10:16:14;0.50;;;0.50;;
9983;SDS011;16737;50.932;6.780;2023-03-01T10:18:51;0.50;;;0.50;;
9983;SDS011;16737;50.932;6.780;2023-03-01T10:21:25;0.40;;;0.40;;
9983;SDS011;16737;50.932;6.780;2023-03-01T10:23:58;0.60;;;0.60;;
9983;SDS011;16737;50.932;6.780;2023-03-01T10:26:39;0.50;;;0.50;;
9983;SDS011;16737;50.932;6.780;2023-03-01T10:29:14;0.52;;;0.52;;
9983;SDS011;16737;50.932;6.780;2023-03-01T10:31:43;0.40;;;0.40;;
9983;SDS011;16737;50.932;6.780;2023-03-01T10:34:14;0.50;;;0.50;;
9983;SDS011;16737;50.932;6.780;2023-03-01T10:36:44;0.50;;;0.50;;
9983;SDS011;16737;50.932;6.780;2023-03-01T10:39:17;0.40;;;0.40;;
9983;SDS011;16737;50.932;6.780;2023-03-01T10:41:55;0.40;;;0.40;;
9983;SDS011;16737;50.932;6.780;2023-03-01T10:44:35;0.40;;;0.40;;
9983;SDS011;16737;50.932;6.780;2023-03-01T10:47:16;0.50;;;0.50;;
9983;SDS011;16737;50.932;6.780;2023-03-01T10:50:00;0.50;;;0.50;;
9983;SDS011;16737;50.932;6.780;2023-03-01T10:52:31;0.52;;;0.52;;
9983;SDS011;16737;50.932;6.780;2023-03-01T10:55:04;0.50;;;0.50;;
9983;SDS011;16737;50.932;6.780;2023-03-01T10:58:05;0.40;;;0.40;;
9983;SDS011;16737;50.932;6.780;2023-03-01T11:00:46;0.60;;;0.60;;
9983;SDS011;16737;50.932;6.780;2023-03-01T11:03:17;0.50;;;0.50;;
9983;SDS011;16737;50.932;6.780;2023-03-01T11:05:52;0.40;;;0.40;;
9983;SDS011;16737;50.932;6.780;2023-03-01T11:08:31;0.50;;;0.50;;
9983;SDS011;16737;50.932;6.780;2023-03-01T11:11:14;0.50;;;0.50;;
9983;SDS011;16737;50.932;6.780;2023-03-01T11:13:49;0.50;;;0.50;;
9983;SDS011;16737;50.932;6.780;2023-03-01T11:16:29;0.47;;;0.47;;
9983;SDS011;16737;50.932;6.780;2023-03-01T11:19:14;0.50;;;0.50;;
9983;SDS011;16737;50.932;6.780;2023-03-01T11:21:55;0.50;;;0.50;;
9983;SDS011;16737;50.932;6.780;2023-03-01T11:24:36;0.50;;;0.50;;
9983;SDS011;16737;50.932;6.780;2023-03-01T11:27:11;0.50;;;0.50;;
9983;SDS011;16737;50.932;6.780;2023-03-01T11:29:46;0.47;;;0.47;;
9983;SDS011;16737;50.932;6.780;2023-03-01T11:32:20;0.40;;;0.40;;
9983;SDS011;16737;50.932;6.780;2023-03-01T11:34:52;0.40;;;0.40;;
9983;SDS011;16737;50.932;6.780;2023-03-01T11:37:28;0.40;;;0.40;;
9983;SDS011;16737;50.932;6.780;2023-03-01T11:40:11;0.57;;;0.57;;
9983;SDS011;16737;50.932;6.780;2023-03-01T11:42:48;0.43;;;0.43;;
9983;SDS011;16737;50.932;6.780;2023-03-01T11:45:30;0.43;;;0.43;;
9983;SDS011;16737;50.932;6.780;2023-03-01T11:48:19;0.40;;;0.40;;
9983;SDS011;16737;50.932;6.780;2023-03-01T11:51:05;0.50;;;0.50;;
9983;SDS011;16737;50.932;6.780;2023-03-01T11:53:48;0.50;;;0.50;;
9983;SDS011;16737;50.932;6.780;2023-03-01T11:56:31;0.40;;;0.40;;
9983;SDS011;16737;50.932;6.780;2023-03-01T11:59:13;0.43;;;0.43;;
9983;SDS011;16737;50.932;6.780;2023-03-01T12:02:23;0.47;;;0.47;;
9983;SDS011;16737;50.932;6.780;2023-03-01T12:05:36;0.40;;;0.40;;
9983;SDS011;16737;50.932;6.780;2023-03-01T12:08:29;0.40;;;0.40;;
9983;SDS011;16737;50.932;6.780;2023-03-01T12:11:06;0.50;;;0.50;;
9983;SDS011;16737;50.932;6.780;2023-03-01T12:14:04;0.50;;;0.50;;
9983;SDS011;16737;50.932;6.780;2023-03-01T12:17:12;0.40;;;0.40;;
9983;SDS011;16737;50.932;6.780;2023-03-01T12:20:13;0.40;;;0.40;;
9983;SDS011;16737;50.932;6.780;2023-03-01T12:23:03;0.40;;;0.40;;
9983;SDS011;16737;50.932;6.780;2023-03-01T12:26:05;0.43;;;0.43;;
9983;SDS011;16737;50.932;6.780;2023-03-01T12:28:41;0.40;;;0.40;;
9983;SDS011;16737;50.932;6.780;2023-03-01T12:31:32;0.40;;;0.40;;
9983;SDS011;16737;50.932;6.780;2023-03-01T12:37:59;0.40;;;0.40;;
9983;SDS011;16737;50.932;6.780;2023-03-01T12:44:08;0.40;;;0.40;;
9983;SDS011;16737;50.932;6.780;2023-03-01T12:46:59;0.40;;;0.40;;
9983;SDS011;16737;50.932;6.780;2023-03-01T12:49:44;0.40;;;0.40;;
9983;SDS011;16737;50.932;6.780;2023-03-01T12:52:17;0.50;;;0.50;;
9983;SDS011;16737;50.932;6.780;2023-03-01T12:54:50;0.50;;;0.50;;
9983;SDS011;16737;50.932;6.780;2023-03-01T12:57:21;0.40;;;0.40;;
9983;SDS011;16737;50.932;6.780;2023-03-01T13:00:03;0.50;;;0.50;;
9983;SDS011;16737;50.932;6.780;2023-03-01T13:02:54;0.45;;;0.45;;
9983;SDS011;16737;50.932;6.780;2023-03-01T13:05:34;0.40;;;0.40;;
9983;SDS011;16737;50.932;6.780;2023-03-01T13:08:14;0.52;;;0.52;;
9983;SDS011;16737;50.932;6.780;2023-03-01T13:10:50;0.40;;;0.40;;
9983;SDS011;16737;50.932;6.780;2023-03-01T13:13:23;0.52;;;0.52;;
9983;SDS011;16737;50.932;6.780;2023-03-01T13:15:52;0.50;;;0.50;;
9983;SDS011;16737;50.932;6.780;2023-03-01T13:18:29;0.50;;;0.50;;
9983;SDS011;16737;50.932;6.780;2023-03-01T13:20:59;0.40;;;0.40;;
9983;SDS011;16737;50.932;6.780;2023-03-01T13:23:31;0.40;;;0.40;;
9983;SDS011;16737;50.932;6.780;2023-03-01T13:26:05;0.40;;;0.40;;
9983;SDS011;16737;50.932;6.780;2023-03-01T13:34:49;0.50;;;0.50;;
9983;SDS011;16737;50.932;6.780;2023-03-01T13:37:28;0.40;;;0.40;;
9983;SDS011;16737;50.932;6.780;2023-03-01T13:43:27;0.50;;;0.50;;
9983;SDS011;16737;50.932;6.780;2023-03-01T13:45:57;0.40;;;0.40;;
9983;SDS011;16737;50.932;6.780;2023-03-01T13:48:26;0.50;;;0.50;;
9983;SDS011;16737;50.932;6.780;2023-03-01T13:50:58;0.40;;;0.40;;
9983;SDS011;16737;50.932;6.780;2023-03-01T13:53:30;0.50;;;0.50;;
9983;SDS011;16737;50.932;6.780;2023-03-01T13:56:03;0.40;;;0.40;;
9983;SDS011;16737;50.932;6.780;2023-03-01T13:58:47;0.50;;;0.50;;
9983;SDS011;16737;50.932;6.780;2023-03-01T14:01:22;0.50;;;0.50;;
9983;SDS011;16737;50.932;6.780;2023-03-01T14:03:53;0.45;;;0.45;;
9983;SDS011;16737;50.932;6.780;2023-03-01T14:06:25;0.52;;;0.52;;
9983;SDS011;16737;50.932;6.780;2023-03-01T14:09:01;0.40;;;0.40;;
9983;SDS011;16737;50.932;6.780;2023-03-01T14:14:48;0.47;;;0.47;;
9983;SDS011;16737;50.932;6.780;2023-03-01T14:20:17;0.40;;;0.40;;
9983;SDS011;16737;50.932;6.780;2023-03-01T14:22:49;0.50;;;0.50;;
9983;SDS011;16737;50.932;6.780;2023-03-01T14:25:23;0.50;;;0.50;;
9983;SDS011;16737;50.932;6.780;2023-03-01T14:27:56;0.40;;;0.40;;
9983;SDS011;16737;50.932;6.780;2023-03-01T14:30:30;0.43;;;0.43;;
9983;SDS011;16737;50.932;6.780;2023-03-01T14:33:03;0.43;;;0.43;;
9983;SDS011;16737;50.932;6.780;2023-03-01T14:35:33;0.50;;;0.50;;
9983;SDS011;16737;50.932;6.780;2023-03-01T14:38:03;0.40;;;0.40;;
9983;SDS011;16737;50.932;6.780;2023-03-01T14:40:32;0.50;;;0.50;;
9983;SDS011;16737;50.932;6.780;2023-03-01T14:43:04;0.40;;;0.40;;
9983;SDS011;16737;50.932;6.780;2023-03-01T14:45:38;0.57;;;0.57;;
9983;SDS011;16737;50.932;6.780;2023-03-01T14:48:05;0.50;;;0.50;;
9983;SDS011;16737;50.932;6.780;2023-03-01T14:50:34;0.60;;;0.60;;
9983;SDS011;16737;50.932;6.780;2023-03-01T14:53:12;0.40;;;0.40;;
9983;SDS011;16737;50.932;6.780;2023-03-01T14:55:45;0.50;;;0.50;;
9983;SDS011;16737;50.932;6.780;2023-03-01T14:58:18;0.47;;;0.47;;
9983;SDS011;16737;50.932;6.780;2023-03-01T15:00:50;0.47;;;0.47;;
9983;SDS011;16737;50.932;6.780;2023-03-01T15:03:24;0.50;;;0.50;;
9983;SDS011;16737;50.932;6.780;2023-03-01T15:05:59;0.40;;;0.40;;
9983;SDS011;16737;50.932;6.780;2023-03-01T15:08:30;0.60;;;0.60;;
9983;SDS011;16737;50.932;6.780;2023-03-01T15:11:00;0.50;;;0.50;;
9983;SDS011;16737;50.932;6.780;2023-03-01T15:13:31;0.52;;;0.52;;
9983;SDS011;16737;50.932;6.780;2023-03-01T15:16:01;0.50;;;0.50;;
9983;SDS011;16737;50.932;6.780;2023-03-01T15:18:32;0.50;;;0.50;;
9983;SDS011;16737;50.932;6.780;2023-03-01T15:21:08;0.50;;;0.50;;
9983;SDS011;16737;50.932;6.780;2023-03-01T15:23:47;0.50;;;0.50;;
9983;SDS011;16737;50.932;6.780;2023-03-01T15:26:23;0.50;;;0.50;;
9983;SDS011;16737;50.932;6.780;2023-03-01T15:28:55;0.40;;;0.40;;
9983;SDS011;16737;50.932;6.780;2023-03-01T15:31:25;0.50;;;0.50;;
9983;SDS011;16737;50.932;6.780;2023-03-01T15:34:07;0.50;;;0.50;;
9983;SDS011;16737;50.932;6.780;2023-03-01T15:36:39;0.70;;;0.70;;
9983;SDS011;16737;50.932;6.780;2023-03-01T15:39:29;0.45;;;0.45;;
9983;SDS011;16737;50.932;6.780;2023-03-01T15:42:03;0.50;;;0.50;;
9983;SDS011;16737;50.932;6.780;2023-03-01T15:44:36;0.60;;;0.60;;
9983;SDS011;16737;50.932;6.780;2023-03-01T15:47:22;0.60;;;0.60;;
9983;SDS011;16737;50.932;6.780;2023-03-01T15:49:55;0.50;;;0.50;;
9983;SDS011;16737;50.932;6.780;2023-03-01T15:52:26;0.50;;;0.50;;
9983;SDS011;16737;50.932;6.780;2023-03-01T15:55:01;0.60;;;0.60;;